sensor_id;sensor_type;location;lat;lon;timestamp;pressure;altitude;pressure_sealevel;temperature;humidity
11542;BME280;5827;49.482;7.716;2022-07-22T00:01:00;99250.50;;;22.28;84.67
11542;BME280;5827;49.482;7.716;2022-07-22T00:03:02;99253.84;;;22.25;84.21
11542;BME280;5827;49.482;7.716;2022-07-22T00:05:04;99252.56;;;22.22;84.75
11542;BME280;5827;49.482;7.716;2022-07-22T00:07:06;99256.50;;;22.16;84.07
11542;BME280;5827;49.482;7.716;2022-07-22T00:09:07;99255.59;;;22.07;84.97
11542;BME280;5827;49.482;7.716;2022-07-22T00:11:09;99259.75;;;22.04;84.82
11542;BME280;5827;49.482;7.716;2022-07-22T00:13:10;99258.09;;;22.03;85.10
11542;BME280;5827;49.482;7.716;2022-07-22T00:15:12;99250.75;;;22.04;84.82
11542;BME280;5827;49.482;7.716;2022-07-22T00:17:15;99250.25;;;22.02;85.86
11542;BME280;5827;49.482;7.716;2022-07-22T00:19:17;99246.22;;;21.99;86.03
11542;BME280;5827;49.482;7.716;2022-07-22T00:21:18;99240.38;;;21.92;86.29
11542;BME280;5827;49.482;7.716;2022-07-22T00:23:20;99243.59;;;21.80;86.63
11542;BME280;5827;49.482;7.716;2022-07-22T00:25:21;99240.78;;;21.86;86.66
11542;BME280;5827;49.482;7.716;2022-07-22T00:27:23;99241.50;;;21.77;87.38
11542;BME280;5827;49.482;7.716;2022-07-22T00:29:24;99241.59;;;21.86;85.99
11542;BME280;5827;49.482;7.716;2022-07-22T00:31:27;99238.47;;;21.79;86.86
11542;BME280;5827;49.482;7.716;2022-07-22T00:33:30;99243.72;;;21.75;86.36
11542;BME280;5827;49.482;7.716;2022-07-22T00:35:31;99248.09;;;21.76;87.16
11542;BME280;5827;49.482;7.716;2022-07-22T00:37:33;99247.47;;;21.66;87.79
11542;BME280;5827;49.482;7.716;2022-07-22T00:39:34;99242.13;;;21.61;87.57
11542;BME280;5827;49.482;7.716;2022-07-22T00:41:35;99242.44;;;21.59;87.88
11542;BME280;5827;49.482;7.716;2022-07-22T00:43:55;99244.16;;;21.55;87.89
11542;BME280;5827;49.482;7.716;2022-07-22T00:45:58;99238.00;;;21.49;88.38
11542;BME280;5827;49.482;7.716;2022-07-22T00:48:00;99238.09;;;21.44;88.53
11542;BME280;5827;49.482;7.716;2022-07-22T00:50:04;99229.50;;;21.37;89.26
11542;BME280;5827;49.482;7.716;2022-07-22T00:52:06;99234.25;;;21.45;89.00
11542;BME280;5827;49.482;7.716;2022-07-22T00:54:08;99236.09;;;21.36;89.46
11542;BME280;5827;49.482;7.716;2022-07-22T00:56:10;99239.41;;;21.33;90.25
11542;BME280;5827;49.482;7.716;2022-07-22T00:58:11;99231.63;;;21.26;90.34
11542;BME280;5827;49.482;7.716;2022-07-22T01:00:16;99229.50;;;21.37;89.85
11542;BME280;5827;49.482;7.716;2022-07-22T01:02:18;99232.81;;;21.20;89.83
11542;BME280;5827;49.482;7.716;2022-07-22T01:04:20;99229.69;;;21.27;90.15
11542;BME280;5827;49.482;7.716;2022-07-22T01:06:22;99222.63;;;21.26;90.30
11542;BME280;5827;49.482;7.716;2022-07-22T01:08:24;99231.78;;;21.02;90.58
11542;BME280;5827;49.482;7.716;2022-07-22T01:10:25;99216.72;;;20.91;91.88
11542;BME280;5827;49.482;7.716;2022-07-22T01:12:27;99217.50;;;20.78;92.52
11542;BME280;5827;49.482;7.716;2022-07-22T01:14:28;99213.53;;;21.03;91.47
11542;BME280;5827;49.482;7.716;2022-07-22T01:16:30;99222.63;;;21.12;91.04
11542;BME280;5827;49.482;7.716;2022-07-22T01:18:31;99215.34;;;21.08;90.34
11542;BME280;5827;49.482;7.716;2022-07-22T01:20:35;99214.84;;;21.05;90.37
11542;BME280;5827;49.482;7.716;2022-07-22T01:22:36;99222.28;;;21.00;90.74
11542;BME280;5827;49.482;7.716;2022-07-22T01:24:38;99223.09;;;21.00;91.03
11542;BME280;5827;49.482;7.716;2022-07-22T01:26:39;99219.22;;;20.74;92.52
11542;BME280;5827;49.482;7.716;2022-07-22T01:28:41;99221.00;;;20.65;92.38
11542;BME280;5827;49.482;7.716;2022-07-22T01:30:43;99223.28;;;20.90;91.18
11542;BME280;5827;49.482;7.716;2022-07-22T01:32:44;99222.59;;;20.98;91.65
11542;BME280;5827;49.482;7.716;2022-07-22T01:34:46;99222.78;;;21.02;91.91
11542;BME280;5827;49.482;7.716;2022-07-22T01:36:49;99226.94;;;20.99;90.59
11542;BME280;5827;49.482;7.716;2022-07-22T01:38:50;99220.16;;;20.97;90.64
11542;BME280;5827;49.482;7.716;2022-07-22T01:40:52;99222.06;;;20.83;90.85
11542;BME280;5827;49.482;7.716;2022-07-22T01:42:53;99228.31;;;20.83;90.84
11542;BME280;5827;49.482;7.716;2022-07-22T01:44:55;99221.25;;;20.82;91.01
11542;BME280;5827;49.482;7.716;2022-07-22T01:46:56;99228.22;;;20.88;90.65
11542;BME280;5827;49.482;7.716;2022-07-22T01:48:58;99228.44;;;20.92;91.17
11542;BME280;5827;49.482;7.716;2022-07-22T01:51:00;99236.19;;;20.85;90.61
11542;BME280;5827;49.482;7.716;2022-07-22T01:53:03;99224.41;;;20.89;90.27
11542;BME280;5827;49.482;7.716;2022-07-22T01:55:05;99228.63;;;20.81;91.05
11542;BME280;5827;49.482;7.716;2022-07-22T01:57:07;99235.06;;;20.72;91.55
11542;BME280;5827;49.482;7.716;2022-07-22T01:59:09;99239.59;;;20.76;90.84
11542;BME280;5827;49.482;7.716;2022-07-22T02:01:11;99238.72;;;20.81;90.79
11542;BME280;5827;49.482;7.716;2022-07-22T02:03:12;99234.75;;;20.73;90.54
11542;BME280;5827;49.482;7.716;2022-07-22T02:05:14;99234.13;;;20.63;91.06
11542;BME280;5827;49.482;7.716;2022-07-22T02:07:15;99241.13;;;20.50;92.90
11542;BME280;5827;49.482;7.716;2022-07-22T02:09:18;99240.06;;;20.46;92.87
11542;BME280;5827;49.482;7.716;2022-07-22T02:11:20;99245.25;;;20.47;92.61
11542;BME280;5827;49.482;7.716;2022-07-22T02:13:21;99238.25;;;20.41;92.65
11542;BME280;5827;49.482;7.716;2022-07-22T02:15:23;99239.22;;;20.31;93.19
11542;BME280;5827;49.482;7.716;2022-07-22T02:17:24;99234.66;;;20.27;94.00
11542;BME280;5827;49.482;7.716;2022-07-22T02:19:26;99234.28;;;20.34;94.03
11542;BME280;5827;49.482;7.716;2022-07-22T02:21:27;99231.41;;;20.25;94.11
11542;BME280;5827;49.482;7.716;2022-07-22T02:23:29;99233.94;;;20.21;95.57
11542;BME280;5827;49.482;7.716;2022-07-22T02:25:32;99230.09;;;20.22;95.10
11542;BME280;5827;49.482;7.716;2022-07-22T02:27:34;99228.41;;;20.26;95.71
11542;BME280;5827;49.482;7.716;2022-07-22T02:29:35;99222.97;;;20.26;95.55
11542;BME280;5827;49.482;7.716;2022-07-22T02:31:37;99220.63;;;20.01;96.94
11542;BME280;5827;49.482;7.716;2022-07-22T02:33:39;99216.25;;;19.62;99.54
11542;BME280;5827;49.482;7.716;2022-07-22T02:35:40;99217.09;;;19.82;99.47
11542;BME280;5827;49.482;7.716;2022-07-22T02:37:42;99220.47;;;19.49;100.00
11542;BME280;5827;49.482;7.716;2022-07-22T02:39:43;99217.38;;;19.61;100.00
11542;BME280;5827;49.482;7.716;2022-07-22T02:41:46;99216.78;;;19.64;100.00
11542;BME280;5827;49.482;7.716;2022-07-22T02:43:48;99214.56;;;19.42;100.00
11542;BME280;5827;49.482;7.716;2022-07-22T02:45:50;99223.31;;;19.39;100.00
11542;BME280;5827;49.482;7.716;2022-07-22T02:47:53;99214.09;;;19.59;100.00
11542;BME280;5827;49.482;7.716;2022-07-22T02:49:55;99211.69;;;19.58;100.00
11542;BME280;5827;49.482;7.716;2022-07-22T02:51:56;99207.75;;;19.69;100.00
11542;BME280;5827;49.482;7.716;2022-07-22T02:53:58;99215.25;;;19.77;99.66
11542;BME280;5827;49.482;7.716;2022-07-22T02:55:59;99213.88;;;19.79;98.96
11542;BME280;5827;49.482;7.716;2022-07-22T02:58:05;99216.13;;;19.91;98.90
11542;BME280;5827;49.482;7.716;2022-07-22T03:00:08;99214.06;;;19.83;97.75
11542;BME280;5827;49.482;7.716;2022-07-22T03:02:10;99222.03;;;19.98;97.67
11542;BME280;5827;49.482;7.716;2022-07-22T03:04:12;99218.69;;;19.83;98.87
11542;BME280;5827;49.482;7.716;2022-07-22T03:06:13;99211.78;;;19.71;99.05
11542;BME280;5827;49.482;7.716;2022-07-22T03:08:15;99219.66;;;19.73;98.81
11542;BME280;5827;49.482;7.716;2022-07-22T03:10:17;99215.75;;;19.79;98.56
11542;BME280;5827;49.482;7.716;2022-07-22T03:12:18;99211.50;;;19.73;98.81
11542;BME280;5827;49.482;7.716;2022-07-22T03:14:21;99217.50;;;19.70;99.37
11542;BME280;5827;49.482;7.716;2022-07-22T03:16:22;99214.44;;;19.76;98.29
11542;BME280;5827;49.482;7.716;2022-07-22T03:18:24;99219.34;;;19.74;98.17
11542;BME280;5827;49.482;7.716;2022-07-22T03:20:26;99220.13;;;19.80;97.48
11542;BME280;5827;49.482;7.716;2022-07-22T03:22:28;99218.53;;;19.74;97.83
11542;BME280;5827;49.482;7.716;2022-07-22T03:24:29;99219.22;;;19.85;97.46
11542;BME280;5827;49.482;7.716;2022-07-22T03:26:31;99223.34;;;19.82;96.61
11542;BME280;5827;49.482;7.716;2022-07-22T03:28:32;99217.22;;;19.71;96.35
11542;BME280;5827;49.482;7.716;2022-07-22T03:30:35;99234.50;;;19.62;95.49
11542;BME280;5827;49.482;7.716;2022-07-22T03:32:37;99226.13;;;19.53;95.74
11542;BME280;5827;49.482;7.716;2022-07-22T03:34:38;99231.81;;;19.57;95.19
11542;BME280;5827;49.482;7.716;2022-07-22T03:36:40;99230.69;;;19.58;95.36
11542;BME280;5827;49.482;7.716;2022-07-22T03:38:42;99233.09;;;19.64;95.31
11542;BME280;5827;49.482;7.716;2022-07-22T03:40:43;99237.59;;;19.50;96.50
11542;BME280;5827;49.482;7.716;2022-07-22T03:42:45;99239.13;;;19.61;96.44
11542;BME280;5827;49.482;7.716;2022-07-22T03:44:46;99237.41;;;19.65;97.09
11542;BME280;5827;49.482;7.716;2022-07-22T03:46:49;99235.28;;;19.62;96.77
11542;BME280;5827;49.482;7.716;2022-07-22T03:48:51;99236.72;;;19.54;97.45
11542;BME280;5827;49.482;7.716;2022-07-22T03:50:52;99230.41;;;19.59;96.60
11542;BME280;5827;49.482;7.716;2022-07-22T03:52:54;99229.72;;;19.48;97.25
11542;BME280;5827;49.482;7.716;2022-07-22T03:54:55;99225.09;;;19.49;97.97
11542;BME280;5827;49.482;7.716;2022-07-22T03:56:57;99232.16;;;19.50;97.22
11542;BME280;5827;49.482;7.716;2022-07-22T03:58:58;99226.72;;;19.50;97.47
11542;BME280;5827;49.482;7.716;2022-07-22T04:01:00;99230.78;;;19.52;97.42
11542;BME280;5827;49.482;7.716;2022-07-22T04:03:03;99220.16;;;19.51;96.88
11542;BME280;5827;49.482;7.716;2022-07-22T04:05:05;99222.38;;;19.49;96.67
11542;BME280;5827;49.482;7.716;2022-07-22T04:07:07;99226.84;;;19.40;96.09
11542;BME280;5827;49.482;7.716;2022-07-22T04:09:08;99225.44;;;19.42;95.42
11542;BME280;5827;49.482;7.716;2022-07-22T04:11:10;99223.13;;;19.30;95.02
11542;BME280;5827;49.482;7.716;2022-07-22T04:13:11;99228.69;;;19.20;95.78
11542;BME280;5827;49.482;7.716;2022-07-22T04:15:13;99220.75;;;19.24;95.89
11542;BME280;5827;49.482;7.716;2022-07-22T04:17:14;99222.41;;;19.25;95.80
11542;BME280;5827;49.482;7.716;2022-07-22T04:19:17;99221.59;;;19.24;95.61
11542;BME280;5827;49.482;7.716;2022-07-22T04:21:19;99223.88;;;19.36;94.64
11542;BME280;5827;49.482;7.716;2022-07-22T04:23:20;99224.56;;;19.47;93.35
11542;BME280;5827;49.482;7.716;2022-07-22T04:25:22;99229.13;;;19.51;93.45
11542;BME280;5827;49.482;7.716;2022-07-22T04:27:24;99222.16;;;19.45;94.18
11542;BME280;5827;49.482;7.716;2022-07-22T04:29:25;99216.13;;;19.48;94.61
11542;BME280;5827;49.482;7.716;2022-07-22T04:31:27;99227.97;;;19.58;95.03
11542;BME280;5827;49.482;7.716;2022-07-22T04:33:28;99217.75;;;19.49;96.34
11542;BME280;5827;49.482;7.716;2022-07-22T04:35:31;99222.38;;;19.49;97.06
11542;BME280;5827;49.482;7.716;2022-07-22T04:37:32;99224.78;;;19.50;95.69
11542;BME280;5827;49.482;7.716;2022-07-22T04:39:34;99225.41;;;19.47;94.83
11542;BME280;5827;49.482;7.716;2022-07-22T04:41:36;99225.44;;;19.42;94.48
11542;BME280;5827;49.482;7.716;2022-07-22T04:43:37;99224.69;;;19.61;95.16
11542;BME280;5827;49.482;7.716;2022-07-22T04:45:39;99225.38;;;19.71;96.14
11542;BME280;5827;49.482;7.716;2022-07-22T04:47:40;99229.31;;;20.03;93.45
11542;BME280;5827;49.482;7.716;2022-07-22T04:49:42;99228.84;;;20.15;92.49
11542;BME280;5827;49.482;7.716;2022-07-22T04:51:45;99234.00;;;20.35;91.83
11542;BME280;5827;49.482;7.716;2022-07-22T04:53:46;99235.69;;;20.50;92.01
11542;BME280;5827;49.482;7.716;2022-07-22T04:55:48;99240.75;;;20.89;91.30
11542;BME280;5827;49.482;7.716;2022-07-22T04:57:49;99236.72;;;21.00;89.32
11542;BME280;5827;49.482;7.716;2022-07-22T04:59:51;99244.38;;;21.31;87.92
11542;BME280;5827;49.482;7.716;2022-07-22T05:01:52;99243.44;;;21.63;86.19
11542;BME280;5827;49.482;7.716;2022-07-22T05:03:54;99239.97;;;21.85;84.43
11542;BME280;5827;49.482;7.716;2022-07-22T05:05:56;99245.47;;;22.07;81.72
11542;BME280;5827;49.482;7.716;2022-07-22T05:07:59;99248.88;;;21.91;81.80
11542;BME280;5827;49.482;7.716;2022-07-22T05:10:00;99244.97;;;22.19;82.21
11542;BME280;5827;49.482;7.716;2022-07-22T05:12:02;99251.56;;;22.04;79.60
11542;BME280;5827;49.482;7.716;2022-07-22T05:14:04;99235.00;;;22.01;81.49
11542;BME280;5827;49.482;7.716;2022-07-22T05:16:06;99230.88;;;22.26;82.37
11542;BME280;5827;49.482;7.716;2022-07-22T05:18:08;99239.38;;;22.24;80.14
11542;BME280;5827;49.482;7.716;2022-07-22T05:20:10;99236.41;;;22.35;80.88
11542;BME280;5827;49.482;7.716;2022-07-22T05:22:12;99239.88;;;22.49;80.58
11542;BME280;5827;49.482;7.716;2022-07-22T05:24:15;99241.47;;;22.41;80.24
11542;BME280;5827;49.482;7.716;2022-07-22T05:26:16;99248.72;;;22.46;79.32
11542;BME280;5827;49.482;7.716;2022-07-22T05:28:18;99237.59;;;22.65;78.54
11542;BME280;5827;49.482;7.716;2022-07-22T05:30:20;99250.13;;;22.88;76.82
11542;BME280;5827;49.482;7.716;2022-07-22T05:32:21;99250.72;;;23.07;76.97
11542;BME280;5827;49.482;7.716;2022-07-22T05:34:23;99249.66;;;23.17;76.62
11542;BME280;5827;49.482;7.716;2022-07-22T05:36:24;99249.59;;;23.40;76.18
11542;BME280;5827;49.482;7.716;2022-07-22T05:38:26;99253.09;;;23.31;75.78
11542;BME280;5827;49.482;7.716;2022-07-22T05:40:29;99256.75;;;23.27;75.00
11542;BME280;5827;49.482;7.716;2022-07-22T05:42:30;99256.69;;;23.49;75.34
11542;BME280;5827;49.482;7.716;2022-07-22T05:44:32;99258.47;;;23.54;74.74
11542;BME280;5827;49.482;7.716;2022-07-22T05:46:33;99256.78;;;23.67;73.20
11542;BME280;5827;49.482;7.716;2022-07-22T05:48:35;99255.84;;;23.40;72.89
11542;BME280;5827;49.482;7.716;2022-07-22T05:50:36;99247.28;;;22.71;76.71
11542;BME280;5827;49.482;7.716;2022-07-22T05:52:38;99252.09;;;23.27;75.18
11542;BME280;5827;49.482;7.716;2022-07-22T05:54:39;99240.16;;;23.63;74.26
11542;BME280;5827;49.482;7.716;2022-07-22T05:56:42;99250.44;;;23.57;73.28
11542;BME280;5827;49.482;7.716;2022-07-22T05:58:44;99252.47;;;23.83;72.34
11542;BME280;5827;49.482;7.716;2022-07-22T06:00:45;99248.34;;;24.20;72.80
11542;BME280;5827;49.482;7.716;2022-07-22T06:02:47;99257.19;;;24.34;69.64
11542;BME280;5827;49.482;7.716;2022-07-22T06:04:48;99245.47;;;24.51;71.31
11542;BME280;5827;49.482;7.716;2022-07-22T06:06:50;99257.69;;;24.71;69.62
11542;BME280;5827;49.482;7.716;2022-07-22T06:08:51;99256.69;;;24.84;68.93
11542;BME280;5827;49.482;7.716;2022-07-22T06:10:53;99260.56;;;24.75;67.76
11542;BME280;5827;49.482;7.716;2022-07-22T06:12:56;99261.78;;;25.21;67.43
11542;BME280;5827;49.482;7.716;2022-07-22T06:14:57;99270.84;;;25.51;66.92
11542;BME280;5827;49.482;7.716;2022-07-22T06:16:59;99273.94;;;25.41;65.82
11542;BME280;5827;49.482;7.716;2022-07-22T06:19:00;99271.34;;;25.74;66.31
11542;BME280;5827;49.482;7.716;2022-07-22T06:21:04;99281.47;;;25.91;64.22
11542;BME280;5827;49.482;7.716;2022-07-22T06:23:05;99273.88;;;26.59;64.68
11542;BME280;5827;49.482;7.716;2022-07-22T06:25:07;99284.72;;;26.55;62.05
11542;BME280;5827;49.482;7.716;2022-07-22T06:27:09;99284.09;;;26.71;63.04
11542;BME280;5827;49.482;7.716;2022-07-22T06:29:12;99285.16;;;26.78;62.67
11542;BME280;5827;49.482;7.716;2022-07-22T06:31:14;99279.13;;;26.85;60.94
11542;BME280;5827;49.482;7.716;2022-07-22T06:33:16;99278.78;;;26.86;60.76
11542;BME280;5827;49.482;7.716;2022-07-22T06:35:18;99281.91;;;26.64;59.86
11542;BME280;5827;49.482;7.716;2022-07-22T06:37:19;99275.97;;;25.91;61.20
11542;BME280;5827;49.482;7.716;2022-07-22T06:39:21;99266.16;;;25.51;63.02
11542;BME280;5827;49.482;7.716;2022-07-22T06:41:25;99264.34;;;26.15;60.87
11542;BME280;5827;49.482;7.716;2022-07-22T06:43:27;99267.19;;;25.97;60.82
11542;BME280;5827;49.482;7.716;2022-07-22T06:45:32;99267.88;;;26.15;60.84
11542;BME280;5827;49.482;7.716;2022-07-22T06:47:36;99258.72;;;26.11;62.07
11542;BME280;5827;49.482;7.716;2022-07-22T06:49:39;99267.09;;;26.15;60.78
11542;BME280;5827;49.482;7.716;2022-07-22T06:51:41;99262.47;;;26.06;60.88
11542;BME280;5827;49.482;7.716;2022-07-22T06:53:43;99263.75;;;26.30;61.39
11542;BME280;5827;49.482;7.716;2022-07-22T06:55:45;99255.41;;;26.39;60.28
11542;BME280;5827;49.482;7.716;2022-07-22T06:57:47;99264.63;;;26.22;58.87
11542;BME280;5827;49.482;7.716;2022-07-22T06:59:53;99249.09;;;25.75;62.14
11542;BME280;5827;49.482;7.716;2022-07-22T07:01:56;99256.53;;;26.46;59.75
11542;BME280;5827;49.482;7.716;2022-07-22T07:03:58;99259.66;;;26.57;59.12
11542;BME280;5827;49.482;7.716;2022-07-22T07:06:10;99260.47;;;26.91;59.28
11542;BME280;5827;49.482;7.716;2022-07-22T07:08:12;99257.72;;;26.91;57.87
11542;BME280;5827;49.482;7.716;2022-07-22T07:10:14;99247.38;;;25.92;59.81
11542;BME280;5827;49.482;7.716;2022-07-22T07:12:18;99246.06;;;26.19;59.92
11542;BME280;5827;49.482;7.716;2022-07-22T07:14:23;99246.75;;;26.57;59.97
11542;BME280;5827;49.482;7.716;2022-07-22T07:16:24;99248.81;;;26.19;59.47
11542;BME280;5827;49.482;7.716;2022-07-22T07:18:29;99252.34;;;26.61;60.48
11542;BME280;5827;49.482;7.716;2022-07-22T07:20:57;99259.19;;;26.88;57.61
11542;BME280;5827;49.482;7.716;2022-07-22T07:23:00;99255.06;;;27.27;57.96
11542;BME280;5827;49.482;7.716;2022-07-22T07:25:03;99262.88;;;27.50;56.26
11542;BME280;5827;49.482;7.716;2022-07-22T07:27:05;99253.72;;;27.82;57.35
11542;BME280;5827;49.482;7.716;2022-07-22T07:29:07;99251.06;;;27.86;57.14
11542;BME280;5827;49.482;7.716;2022-07-22T07:31:09;99257.72;;;27.73;56.48
11542;BME280;5827;49.482;7.716;2022-07-22T07:33:10;99242.22;;;27.31;57.73
11542;BME280;5827;49.482;7.716;2022-07-22T07:35:18;99246.47;;;27.66;56.86
11542;BME280;5827;49.482;7.716;2022-07-22T07:37:25;99243.38;;;27.79;56.72
11542;BME280;5827;49.482;7.716;2022-07-22T07:39:26;99231.06;;;27.16;57.16
11542;BME280;5827;49.482;7.716;2022-07-22T07:43:51;99224.63;;;26.99;58.39
11542;BME280;5827;49.482;7.716;2022-07-22T07:45:59;99230.16;;;27.24;56.29
11542;BME280;5827;49.482;7.716;2022-07-22T07:48:01;99239.91;;;27.33;56.76
11542;BME280;5827;49.482;7.716;2022-07-22T07:50:05;99230.28;;;27.64;58.09
11542;BME280;5827;49.482;7.716;2022-07-22T07:52:12;99236.66;;;27.07;56.22
11542;BME280;5827;49.482;7.716;2022-07-22T07:54:22;99221.78;;;26.75;58.54
11542;BME280;5827;49.482;7.716;2022-07-22T07:56:27;99218.19;;;27.07;59.48
11542;BME280;5827;49.482;7.716;2022-07-22T07:58:29;99229.59;;;27.30;57.54
11542;BME280;5827;49.482;7.716;2022-07-22T08:00:30;99221.25;;;26.94;56.09
11542;BME280;5827;49.482;7.716;2022-07-22T08:02:37;99223.19;;;27.51;56.39
11542;BME280;5827;49.482;7.716;2022-07-22T08:04:44;99234.38;;;28.07;54.62
11542;BME280;5827;49.482;7.716;2022-07-22T08:06:54;99229.84;;;27.50;57.04
11542;BME280;5827;49.482;7.716;2022-07-22T08:09:01;99220.75;;;27.61;57.79
11542;BME280;5827;49.482;7.716;2022-07-22T08:11:10;99227.88;;;27.26;57.81
11542;BME280;5827;49.482;7.716;2022-07-22T08:13:16;99222.94;;;27.19;56.42
11542;BME280;5827;49.482;7.716;2022-07-22T08:15:18;99227.63;;;27.92;54.88
11542;BME280;5827;49.482;7.716;2022-07-22T08:17:20;99231.75;;;27.98;55.83
11542;BME280;5827;49.482;7.716;2022-07-22T08:19:24;99230.16;;;28.38;54.33
11542;BME280;5827;49.482;7.716;2022-07-22T08:21:33;99228.06;;;28.06;54.63
11542;BME280;5827;49.482;7.716;2022-07-22T08:23:43;99226.72;;;28.00;55.93
11542;BME280;5827;49.482;7.716;2022-07-22T08:25:45;99227.97;;;28.31;54.50
11542;BME280;5827;49.482;7.716;2022-07-22T08:27:47;99227.13;;;28.55;55.08
11542;BME280;5827;49.482;7.716;2022-07-22T08:29:49;99224.75;;;28.69;52.71
11542;BME280;5827;49.482;7.716;2022-07-22T08:31:55;99224.84;;;28.88;52.66
11542;BME280;5827;49.482;7.716;2022-07-22T08:33:57;99225.28;;;28.19;55.17
11542;BME280;5827;49.482;7.716;2022-07-22T08:35:59;99219.13;;;28.66;53.96
11542;BME280;5827;49.482;7.716;2022-07-22T08:38:00;99224.31;;;28.27;54.68
11542;BME280;5827;49.482;7.716;2022-07-22T08:40:03;99219.63;;;28.99;53.70
11542;BME280;5827;49.482;7.716;2022-07-22T08:42:07;99224.16;;;28.48;52.40
11542;BME280;5827;49.482;7.716;2022-07-22T08:44:09;99213.72;;;28.69;55.01
11542;BME280;5827;49.482;7.716;2022-07-22T08:46:11;99213.06;;;29.04;52.41
11542;BME280;5827;49.482;7.716;2022-07-22T08:48:13;99217.44;;;28.61;52.70
11542;BME280;5827;49.482;7.716;2022-07-22T08:50:15;99216.91;;;28.71;53.51
11542;BME280;5827;49.482;7.716;2022-07-22T08:52:17;99216.22;;;28.74;51.65
11542;BME280;5827;49.482;7.716;2022-07-22T08:54:20;99208.78;;;29.06;52.97
11542;BME280;5827;49.482;7.716;2022-07-22T08:56:22;99210.91;;;29.60;53.52
11542;BME280;5827;49.482;7.716;2022-07-22T08:58:25;99211.66;;;29.10;51.37
11542;BME280;5827;49.482;7.716;2022-07-22T09:00:26;99208.22;;;28.85;51.86
11542;BME280;5827;49.482;7.716;2022-07-22T09:02:36;99211.09;;;29.20;51.48
11542;BME280;5827;49.482;7.716;2022-07-22T09:04:51;99210.75;;;29.37;50.78
11542;BME280;5827;49.482;7.716;2022-07-22T09:06:53;99206.34;;;29.68;50.64
11542;BME280;5827;49.482;7.716;2022-07-22T09:08:56;99208.53;;;30.13;50.98
11542;BME280;5827;49.482;7.716;2022-07-22T09:10:58;99215.69;;;29.99;50.18
11542;BME280;5827;49.482;7.716;2022-07-22T09:13:03;99213.72;;;29.80;49.31
11542;BME280;5827;49.482;7.716;2022-07-22T09:15:07;99215.97;;;29.58;50.27
11542;BME280;5827;49.482;7.716;2022-07-22T09:17:22;99202.47;;;29.37;50.94
11542;BME280;5827;49.482;7.716;2022-07-22T09:19:31;99204.28;;;29.49;51.54
11542;BME280;5827;49.482;7.716;2022-07-22T09:21:34;99205.38;;;29.45;51.22
11542;BME280;5827;49.482;7.716;2022-07-22T09:23:39;99206.13;;;29.77;50.57
11542;BME280;5827;49.482;7.716;2022-07-22T09:25:41;99216.69;;;29.40;49.24
11542;BME280;5827;49.482;7.716;2022-07-22T09:27:43;99210.97;;;29.64;50.23
11542;BME280;5827;49.482;7.716;2022-07-22T09:29:48;99213.66;;;29.96;50.44
11542;BME280;5827;49.482;7.716;2022-07-22T09:31:52;99206.06;;;30.28;51.10
11542;BME280;5827;49.482;7.716;2022-07-22T09:33:54;99205.53;;;30.42;49.71
11542;BME280;5827;49.482;7.716;2022-07-22T09:36:02;99199.00;;;30.11;49.30
11542;BME280;5827;49.482;7.716;2022-07-22T09:38:06;99201.53;;;30.58;50.76
11542;BME280;5827;49.482;7.716;2022-07-22T09:40:12;99206.56;;;30.14;49.10
11542;BME280;5827;49.482;7.716;2022-07-22T09:42:14;99198.81;;;29.84;49.44
11542;BME280;5827;49.482;7.716;2022-07-22T09:44:20;99194.88;;;30.21;49.06
11542;BME280;5827;49.482;7.716;2022-07-22T09:46:34;99202.38;;;30.04;48.72
11542;BME280;5827;49.482;7.716;2022-07-22T09:48:37;99194.13;;;30.24;49.95
11542;BME280;5827;49.482;7.716;2022-07-22T09:50:39;99189.25;;;30.17;48.26
11542;BME280;5827;49.482;7.716;2022-07-22T09:52:40;99195.88;;;30.32;50.12
11542;BME280;5827;49.482;7.716;2022-07-22T09:54:43;99191.59;;;30.15;49.16
11542;BME280;5827;49.482;7.716;2022-07-22T09:56:44;99190.41;;;29.97;48.47
11542;BME280;5827;49.482;7.716;2022-07-22T09:58:46;99185.13;;;29.92;49.00
11542;BME280;5827;49.482;7.716;2022-07-22T10:00:49;99182.28;;;30.43;48.36
11542;BME280;5827;49.482;7.716;2022-07-22T10:02:53;99174.81;;;30.66;48.33
11542;BME280;5827;49.482;7.716;2022-07-22T10:04:58;99169.53;;;30.38;48.80
11542;BME280;5827;49.482;7.716;2022-07-22T10:07:01;99180.22;;;30.40;47.66
11542;BME280;5827;49.482;7.716;2022-07-22T10:09:03;99177.72;;;30.54;47.96
11542;BME280;5827;49.482;7.716;2022-07-22T10:11:06;99181.25;;;30.93;47.23
11542;BME280;5827;49.482;7.716;2022-07-22T10:13:08;99173.03;;;30.77;47.80
11542;BME280;5827;49.482;7.716;2022-07-22T10:15:10;99166.47;;;30.85;46.53
11542;BME280;5827;49.482;7.716;2022-07-22T10:17:13;99157.63;;;30.99;46.32
11542;BME280;5827;49.482;7.716;2022-07-22T10:19:15;99158.22;;;31.12;47.94
11542;BME280;5827;49.482;7.716;2022-07-22T10:21:18;99155.38;;;31.31;48.77
11542;BME280;5827;49.482;7.716;2022-07-22T10:23:19;99158.69;;;31.41;46.87
11542;BME280;5827;49.482;7.716;2022-07-22T10:25:23;99156.56;;;30.84;46.32
11542;BME280;5827;49.482;7.716;2022-07-22T10:27:46;99159.94;;;30.74;46.49
11542;BME280;5827;49.482;7.716;2022-07-22T10:29:47;99151.50;;;30.67;46.00
11542;BME280;5827;49.482;7.716;2022-07-22T10:31:49;99156.25;;;30.67;46.32
11542;BME280;5827;49.482;7.716;2022-07-22T10:33:52;99151.25;;;30.53;46.13
11542;BME280;5827;49.482;7.716;2022-07-22T10:35:56;99150.25;;;30.84;46.97
11542;BME280;5827;49.482;7.716;2022-07-22T10:38:05;99148.00;;;30.70;45.91
11542;BME280;5827;49.482;7.716;2022-07-22T10:40:10;99145.97;;;30.67;46.54
11542;BME280;5827;49.482;7.716;2022-07-22T10:42:12;99142.69;;;30.81;45.03
11542;BME280;5827;49.482;7.716;2022-07-22T10:46:51;99146.22;;;31.04;45.74
11542;BME280;5827;49.482;7.716;2022-07-22T10:48:54;99143.63;;;31.15;46.35
11542;BME280;5827;49.482;7.716;2022-07-22T10:51:07;99145.38;;;31.00;46.06
11542;BME280;5827;49.482;7.716;2022-07-22T10:53:12;99134.31;;;30.77;46.48
11542;BME280;5827;49.482;7.716;2022-07-22T10:55:18;99137.28;;;31.14;44.68
11542;BME280;5827;49.482;7.716;2022-07-22T10:57:30;99136.38;;;31.07;45.08
11542;BME280;5827;49.482;7.716;2022-07-22T10:59:32;99131.41;;;31.43;44.94
11542;BME280;5827;49.482;7.716;2022-07-22T11:01:33;99128.34;;;31.51;45.35
11542;BME280;5827;49.482;7.716;2022-07-22T11:03:37;99129.38;;;31.70;44.61